sensor_id;sensor_type;location;lat;lon;timestamp;temperature;humidity
72940;DHT22;61094;51.154;13.570;2022-10-19T00:00:21;11.60;99.90
72940;DHT22;61094;51.154;13.570;2022-10-19T00:02:50;11.60;99.90
72940;DHT22;61094;51.154;13.570;2022-10-19T00:05:17;11.50;99.90
72940;DHT22;61094;51.154;13.570;2022-10-19T00:07:44;11.50;99.90
72940;DHT22;61094;51.154;13.570;2022-10-19T00:10:11;11.40;99.90
72940;DHT22;61094;51.154;13.570;2022-10-19T00:12:39;11.40;99.90
72940;DHT22;61094;51.154;13.570;2022-10-19T00:15:07;11.30;99.90
72940;DHT22;61094;51.154;13.570;2022-10-19T00:17:34;11.30;99.90
72940;DHT22;61094;51.154;13.570;2022-10-19T00:20:00;11.20;99.90
72940;DHT22;61094;51.154;13.570;2022-10-19T00:22:27;11.20;99.90
72940;DHT22;61094;51.154;13.570;2022-10-19T00:24:55;11.10;99.90
72940;DHT22;61094;51.154;13.570;2022-10-19T00:27:22;11.10;99.90
72940;DHT22;61094;51.154;13.570;2022-10-19T00:29:50;11.00;99.90
72940;DHT22;61094;51.154;13.570;2022-10-19T00:32:17;10.90;99.90
72940;DHT22;61094;51.154;13.570;2022-10-19T00:34:44;10.80;99.90
72940;DHT22;61094;51.154;13.570;2022-10-19T00:37:11;10.80;99.90
72940;DHT22;61094;51.154;13.570;2022-10-19T00:39:38;10.70;99.90
72940;DHT22;61094;51.154;13.570;2022-10-19T00:42:05;10.70;99.90
72940;DHT22;61094;51.154;13.570;2022-10-19T00:44:59;10.70;99.90
72940;DHT22;61094;51.154;13.570;2022-10-19T00:47:26;10.60;99.90
72940;DHT22;61094;51.154;13.570;2022-10-19T00:49:54;10.60;99.90
72940;DHT22;61094;51.154;13.570;2022-10-19T00:52:23;10.50;99.90
72940;DHT22;61094;51.154;13.570;2022-10-19T00:54:51;10.50;99.90
72940;DHT22;61094;51.154;13.570;2022-10-19T00:57:19;10.50;99.90
72940;DHT22;61094;51.154;13.570;2022-10-19T00:59:47;10.40;99.90
72940;DHT22;61094;51.154;13.570;2022-10-19T01:02:15;10.40;99.90
72940;DHT22;61094;51.154;13.570;2022-10-19T01:04:46;10.30;99.90
72940;DHT22;61094;51.154;13.570;2022-10-19T01:07:14;10.30;99.90
72940;DHT22;61094;51.154;13.570;2022-10-19T01:09:41;10.30;99.90
72940;DHT22;61094;51.154;13.570;2022-10-19T01:12:17;10.20;99.90
72940;DHT22;61094;51.154;13.570;2022-10-19T01:14:59;10.20;99.90
72940;DHT22;61094;51.154;13.570;2022-10-19T01:17:39;10.20;99.90
72940;DHT22;61094;51.154;13.570;2022-10-19T01:23:44;10.10;99.90
72940;DHT22;61094;51.154;13.570;2022-10-19T01:26:30;10.00;99.90
72940;DHT22;61094;51.154;13.570;2022-10-19T01:29:09;10.00;99.90
72940;DHT22;61094;51.154;13.570;2022-10-19T01:31:45;9.90;99.90
72940;DHT22;61094;51.154;13.570;2022-10-19T01:34:16;9.80;99.90
72940;DHT22;61094;51.154;13.570;2022-10-19T01:36:50;9.80;99.90
72940;DHT22;61094;51.154;13.570;2022-10-19T01:39:24;9.70;99.90
72940;DHT22;61094;51.154;13.570;2022-10-19T01:41:58;9.70;99.90
72940;DHT22;61094;51.154;13.570;2022-10-19T01:44:30;9.60;99.90
72940;DHT22;61094;51.154;13.570;2022-10-19T01:47:03;9.60;99.90
72940;DHT22;61094;51.154;13.570;2022-10-19T01:49:34;9.60;99.90
72940;DHT22;61094;51.154;13.570;2022-10-19T01:52:05;9.50;99.90
72940;DHT22;61094;51.154;13.570;2022-10-19T01:54:36;9.50;99.90
72940;DHT22;61094;51.154;13.570;2022-10-19T01:57:06;9.40;99.90
72940;DHT22;61094;51.154;13.570;2022-10-19T01:59:35;9.40;99.90
72940;DHT22;61094;51.154;13.570;2022-10-19T02:02:05;9.30;99.90
72940;DHT22;61094;51.154;13.570;2022-10-19T02:04:33;9.30;99.90
72940;DHT22;61094;51.154;13.570;2022-10-19T02:07:02;9.20;99.90
72940;DHT22;61094;51.154;13.570;2022-10-19T02:09:30;9.20;99.90
72940;DHT22;61094;51.154;13.570;2022-10-19T02:11:59;9.10;99.90
72940;DHT22;61094;51.154;13.570;2022-10-19T02:14:30;9.10;99.90
72940;DHT22;61094;51.154;13.570;2022-10-19T02:17:04;9.10;99.90
72940;DHT22;61094;51.154;13.570;2022-10-19T02:19:31;9.10;99.90
72940;DHT22;61094;51.154;13.570;2022-10-19T02:21:58;9.10;99.90
72940;DHT22;61094;51.154;13.570;2022-10-19T02:24:25;9.10;99.90
72940;DHT22;61094;51.154;13.570;2022-10-19T02:26:52;9.00;99.90
72940;DHT22;61094;51.154;13.570;2022-10-19T02:29:20;9.00;99.90
72940;DHT22;61094;51.154;13.570;2022-10-19T02:31:47;9.00;99.90
72940;DHT22;61094;51.154;13.570;2022-10-19T02:34:16;9.00;99.90
72940;DHT22;61094;51.154;13.570;2022-10-19T02:36:43;9.00;99.90
72940;DHT22;61094;51.154;13.570;2022-10-19T02:39:09;9.00;99.90
72940;DHT22;61094;51.154;13.570;2022-10-19T02:41:39;9.00;99.90
72940;DHT22;61094;51.154;13.570;2022-10-19T02:44:14;9.00;99.90
72940;DHT22;61094;51.154;13.570;2022-10-19T02:46:45;9.00;99.90
72940;DHT22;61094;51.154;13.570;2022-10-19T02:49:13;9.00;99.90
72940;DHT22;61094;51.154;13.570;2022-10-19T02:51:56;9.00;99.90
72940;DHT22;61094;51.154;13.570;2022-10-19T02:54:23;9.00;99.90
72940;DHT22;61094;51.154;13.570;2022-10-19T02:56:50;9.00;99.90
72940;DHT22;61094;51.154;13.570;2022-10-19T02:59:20;9.00;99.90
72940;DHT22;61094;51.154;13.570;2022-10-19T03:01:47;9.00;99.90
72940;DHT22;61094;51.154;13.570;2022-10-19T03:04:15;9.00;99.90
72940;DHT22;61094;51.154;13.570;2022-10-19T03:06:42;9.00;99.90
72940;DHT22;61094;51.154;13.570;2022-10-19T03:09:10;9.00;99.90
72940;DHT22;61094;51.154;13.570;2022-10-19T03:11:36;8.90;99.90
72940;DHT22;61094;51.154;13.570;2022-10-19T03:14:03;8.90;99.90
72940;DHT22;61094;51.154;13.570;2022-10-19T03:16:30;9.00;99.90
72940;DHT22;61094;51.154;13.570;2022-10-19T03:18:57;9.00;99.90
72940;DHT22;61094;51.154;13.570;2022-10-19T03:21:23;8.90;99.90
72940;DHT22;61094;51.154;13.570;2022-10-19T03:23:50;9.00;99.90
72940;DHT22;61094;51.154;13.570;2022-10-19T03:26:18;9.00;99.90
72940;DHT22;61094;51.154;13.570;2022-10-19T03:28:45;9.00;99.90
72940;DHT22;61094;51.154;13.570;2022-10-19T03:31:12;9.00;99.90
72940;DHT22;61094;51.154;13.570;2022-10-19T03:33:39;9.00;99.90
72940;DHT22;61094;51.154;13.570;2022-10-19T03:36:12;9.00;99.90
72940;DHT22;61094;51.154;13.570;2022-10-19T03:38:39;9.00;99.90
72940;DHT22;61094;51.154;13.570;2022-10-19T03:41:06;9.10;99.90
72940;DHT22;61094;51.154;13.570;2022-10-19T03:43:34;9.10;99.90
72940;DHT22;61094;51.154;13.570;2022-10-19T03:46:00;9.10;99.90
72940;DHT22;61094;51.154;13.570;2022-10-19T03:48:27;9.10;99.90
72940;DHT22;61094;51.154;13.570;2022-10-19T03:50:57;9.20;99.90
72940;DHT22;61094;51.154;13.570;2022-10-19T03:53:25;9.20;99.90
72940;DHT22;61094;51.154;13.570;2022-10-19T03:55:51;9.20;99.90
72940;DHT22;61094;51.154;13.570;2022-10-19T03:58:18;9.20;99.90
72940;DHT22;61094;51.154;13.570;2022-10-19T04:00:46;9.30;99.90
72940;DHT22;61094;51.154;13.570;2022-10-19T04:03:13;9.30;99.90
72940;DHT22;61094;51.154;13.570;2022-10-19T04:05:39;9.30;99.90
72940;DHT22;61094;51.154;13.570;2022-10-19T04:08:06;9.30;99.90
72940;DHT22;61094;51.154;13.570;2022-10-19T04:10:33;9.40;99.90
72940;DHT22;61094;51.154;13.570;2022-10-19T04:12:59;9.40;99.90
72940;DHT22;61094;51.154;13.570;2022-10-19T04:15:26;9.40;99.90
72940;DHT22;61094;51.154;13.570;2022-10-19T04:17:54;9.40;99.90
72940;DHT22;61094;51.154;13.570;2022-10-19T04:20:21;9.40;99.90
72940;DHT22;61094;51.154;13.570;2022-10-19T04:22:47;9.50;99.90
72940;DHT22;61094;51.154;13.570;2022-10-19T04:25:14;9.50;99.90
72940;DHT22;61094;51.154;13.570;2022-10-19T04:27:41;9.50;99.90
72940;DHT22;61094;51.154;13.570;2022-10-19T04:30:08;9.50;99.90
72940;DHT22;61094;51.154;13.570;2022-10-19T04:32:35;9.50;99.90
72940;DHT22;61094;51.154;13.570;2022-10-19T04:35:04;9.50;99.90
72940;DHT22;61094;51.154;13.570;2022-10-19T04:37:31;9.50;99.90
72940;DHT22;61094;51.154;13.570;2022-10-19T04:39:57;9.50;99.90
72940;DHT22;61094;51.154;13.570;2022-10-19T04:42:24;9.50;99.90
72940;DHT22;61094;51.154;13.570;2022-10-19T04:44:51;9.50;99.90
72940;DHT22;61094;51.154;13.570;2022-10-19T04:47:17;9.50;99.90
72940;DHT22;61094;51.154;13.570;2022-10-19T04:49:44;9.50;99.90
72940;DHT22;61094;51.154;13.570;2022-10-19T04:52:12;9.60;99.90
72940;DHT22;61094;51.154;13.570;2022-10-19T04:54:39;9.50;99.90
72940;DHT22;61094;51.154;13.570;2022-10-19T04:57:06;9.60;99.90
72940;DHT22;61094;51.154;13.570;2022-10-19T04:59:33;9.60;99.90
72940;DHT22;61094;51.154;13.570;2022-10-19T05:01:59;9.60;99.90
72940;DHT22;61094;51.154;13.570;2022-10-19T05:04:26;9.60;99.90
72940;DHT22;61094;51.154;13.570;2022-10-19T05:06:53;9.60;99.90
72940;DHT22;61094;51.154;13.570;2022-10-19T05:09:21;9.60;99.90
72940;DHT22;61094;51.154;13.570;2022-10-19T05:11:48;9.60;99.90
72940;DHT22;61094;51.154;13.570;2022-10-19T05:14:15;9.60;99.90
72940;DHT22;61094;51.154;13.570;2022-10-19T05:16:42;9.70;99.90
72940;DHT22;61094;51.154;13.570;2022-10-19T05:19:12;9.70;99.90
72940;DHT22;61094;51.154;13.570;2022-10-19T05:21:38;9.70;99.90
72940;DHT22;61094;51.154;13.570;2022-10-19T05:24:05;9.70;99.90
72940;DHT22;61094;51.154;13.570;2022-10-19T05:26:33;9.70;99.90
72940;DHT22;61094;51.154;13.570;2022-10-19T05:29:00;9.70;99.90
72940;DHT22;61094;51.154;13.570;2022-10-19T05:31:30;9.80;99.90
72940;DHT22;61094;51.154;13.570;2022-10-19T05:33:57;9.80;99.90
72940;DHT22;61094;51.154;13.570;2022-10-19T05:36:25;9.80;99.90
72940;DHT22;61094;51.154;13.570;2022-10-19T05:38:54;9.80;99.90
72940;DHT22;61094;51.154;13.570;2022-10-19T05:41:23;9.80;99.90
72940;DHT22;61094;51.154;13.570;2022-10-19T05:43:53;9.90;99.90
72940;DHT22;61094;51.154;13.570;2022-10-19T05:46:21;9.90;99.90
72940;DHT22;61094;51.154;13.570;2022-10-19T05:48:47;9.80;99.90
72940;DHT22;61094;51.154;13.570;2022-10-19T05:51:16;9.90;99.90
72940;DHT22;61094;51.154;13.570;2022-10-19T05:53:43;9.90;99.90
72940;DHT22;61094;51.154;13.570;2022-10-19T05:56:14;9.90;99.90
72940;DHT22;61094;51.154;13.570;2022-10-19T05:58:41;9.90;99.90
72940;DHT22;61094;51.154;13.570;2022-10-19T06:01:10;9.90;99.90
72940;DHT22;61094;51.154;13.570;2022-10-19T06:03:37;9.90;99.90
72940;DHT22;61094;51.154;13.570;2022-10-19T06:06:05;9.90;99.90
72940;DHT22;61094;51.154;13.570;2022-10-19T06:08:32;9.90;99.90
72940;DHT22;61094;51.154;13.570;2022-10-19T06:11:06;9.90;99.90
72940;DHT22;61094;51.154;13.570;2022-10-19T06:13:33;9.90;99.90
72940;DHT22;61094;51.154;13.570;2022-10-19T06:16:00;9.90;99.90
72940;DHT22;61094;51.154;13.570;2022-10-19T06:18:28;9.90;99.90
72940;DHT22;61094;51.154;13.570;2022-10-19T06:20:54;10.00;99.90
72940;DHT22;61094;51.154;13.570;2022-10-19T06:23:21;10.00;99.90
72940;DHT22;61094;51.154;13.570;2022-10-19T06:25:48;10.00;99.90
72940;DHT22;61094;51.154;13.570;2022-10-19T06:28:15;9.90;99.90
72940;DHT22;61094;51.154;13.570;2022-10-19T06:30:41;9.90;99.90
72940;DHT22;61094;51.154;13.570;2022-10-19T06:33:08;10.00;99.90
72940;DHT22;61094;51.154;13.570;2022-10-19T06:35:36;10.00;99.90
72940;DHT22;61094;51.154;13.570;2022-10-19T06:38:03;10.00;99.90
72940;DHT22;61094;51.154;13.570;2022-10-19T06:40:30;10.00;99.90
72940;DHT22;61094;51.154;13.570;2022-10-19T06:42:56;10.10;99.90
72940;DHT22;61094;51.154;13.570;2022-10-19T06:45:23;10.10;99.90
72940;DHT22;61094;51.154;13.570;2022-10-19T06:47:50;10.20;99.90
72940;DHT22;61094;51.154;13.570;2022-10-19T06:50:17;10.20;99.90
72940;DHT22;61094;51.154;13.570;2022-10-19T06:52:46;10.30;99.90
72940;DHT22;61094;51.154;13.570;2022-10-19T06:55:13;10.30;99.90
72940;DHT22;61094;51.154;13.570;2022-10-19T06:57:41;10.40;99.90
72940;DHT22;61094;51.154;13.570;2022-10-19T07:00:09;10.40;99.90
72940;DHT22;61094;51.154;13.570;2022-10-19T07:02:36;10.50;99.90
72940;DHT22;61094;51.154;13.570;2022-10-19T07:05:04;10.60;99.90
72940;DHT22;61094;51.154;13.570;2022-10-19T07:07:30;10.80;99.90
72940;DHT22;61094;51.154;13.570;2022-10-19T07:09:58;11.00;99.90
72940;DHT22;61094;51.154;13.570;2022-10-19T07:12:25;11.10;99.90
72940;DHT22;61094;51.154;13.570;2022-10-19T07:14:52;11.20;99.90
72940;DHT22;61094;51.154;13.570;2022-10-19T07:17:20;11.20;99.90
72940;DHT22;61094;51.154;13.570;2022-10-19T07:19:46;11.30;99.90
72940;DHT22;61094;51.154;13.570;2022-10-19T07:22:13;11.40;99.90
72940;DHT22;61094;51.154;13.570;2022-10-19T07:24:40;11.40;99.90
72940;DHT22;61094;51.154;13.570;2022-10-19T07:27:08;11.40;99.90
72940;DHT22;61094;51.154;13.570;2022-10-19T07:29:35;11.40;99.90
72940;DHT22;61094;51.154;13.570;2022-10-19T07:32:01;11.40;99.90
72940;DHT22;61094;51.154;13.570;2022-10-19T07:34:28;11.40;99.90
72940;DHT22;61094;51.154;13.570;2022-10-19T07:36:55;11.50;99.90
72940;DHT22;61094;51.154;13.570;2022-10-19T07:39:22;11.50;99.90
72940;DHT22;61094;51.154;13.570;2022-10-19T07:41:48;11.50;99.90
72940;DHT22;61094;51.154;13.570;2022-10-19T07:44:16;11.50;99.90
72940;DHT22;61094;51.154;13.570;2022-10-19T07:46:43;11.50;99.90
72940;DHT22;61094;51.154;13.570;2022-10-19T07:49:13;11.50;99.90
72940;DHT22;61094;51.154;13.570;2022-10-19T07:51:40;11.60;99.90
72940;DHT22;61094;51.154;13.570;2022-10-19T07:54:07;11.60;99.90
72940;DHT22;61094;51.154;13.570;2022-10-19T07:56:34;11.60;99.90
72940;DHT22;61094;51.154;13.570;2022-10-19T07:59:01;11.70;99.90
72940;DHT22;61094;51.154;13.570;2022-10-19T08:01:32;11.70;99.90
72940;DHT22;61094;51.154;13.570;2022-10-19T08:04:00;11.60;99.90
72940;DHT22;61094;51.154;13.570;2022-10-19T08:06:27;11.70;99.90
72940;DHT22;61094;51.154;13.570;2022-10-19T08:08:54;11.70;99.90
72940;DHT22;61094;51.154;13.570;2022-10-19T08:11:23;11.60;99.90
72940;DHT22;61094;51.154;13.570;2022-10-19T08:13:50;11.70;99.90
72940;DHT22;61094;51.154;13.570;2022-10-19T08:16:21;11.70;99.90
72940;DHT22;61094;51.154;13.570;2022-10-19T08:18:50;11.70;99.90
72940;DHT22;61094;51.154;13.570;2022-10-19T08:21:17;11.80;99.90
72940;DHT22;61094;51.154;13.570;2022-10-19T08:23:44;11.80;99.90
72940;DHT22;61094;51.154;13.570;2022-10-19T08:26:11;11.80;99.90
72940;DHT22;61094;51.154;13.570;2022-10-19T08:28:38;11.80;99.90
72940;DHT22;61094;51.154;13.570;2022-10-19T08:31:13;11.80;99.90
72940;DHT22;61094;51.154;13.570;2022-10-19T08:33:40;11.90;99.90
72940;DHT22;61094;51.154;13.570;2022-10-19T08:36:10;11.90;99.90
72940;DHT22;61094;51.154;13.570;2022-10-19T08:38:38;11.90;99.90
72940;DHT22;61094;51.154;13.570;2022-10-19T08:41:16;12.00;99.90
72940;DHT22;61094;51.154;13.570;2022-10-19T08:44:06;12.10;99.90
72940;DHT22;61094;51.154;13.570;2022-10-19T08:46:47;12.10;99.90
72940;DHT22;61094;51.154;13.570;2022-10-19T08:49:19;12.20;99.90
72940;DHT22;61094;51.154;13.570;2022-10-19T08:51:50;12.30;99.90
72940;DHT22;61094;51.154;13.570;2022-10-19T08:54:18;12.40;99.90
72940;DHT22;61094;51.154;13.570;2022-10-19T08:56:49;12.50;99.90
72940;DHT22;61094;51.154;13.570;2022-10-19T08:59:31;12.60;99.90
72940;DHT22;61094;51.154;13.570;2022-10-19T09:02:06;12.70;99.90
72940;DHT22;61094;51.154;13.570;2022-10-19T09:04:38;12.80;99.90
72940;DHT22;61094;51.154;13.570;2022-10-19T09:07:24;12.90;98.70
72940;DHT22;61094;51.154;13.570;2022-10-19T09:09:55;12.90;99.80
72940;DHT22;61094;51.154;13.570;2022-10-19T09:12:34;13.00;99.90
72940;DHT22;61094;51.154;13.570;2022-10-19T09:15:05;13.00;99.90
72940;DHT22;61094;51.154;13.570;2022-10-19T09:17:33;13.00;99.90
72940;DHT22;61094;51.154;13.570;2022-10-19T09:20:11;13.00;99.90
72940;DHT22;61094;51.154;13.570;2022-10-19T09:22:51;13.10;99.90
72940;DHT22;61094;51.154;13.570;2022-10-19T09:25:21;13.10;99.90
72940;DHT22;61094;51.154;13.570;2022-10-19T09:27:56;13.10;99.90
72940;DHT22;61094;51.154;13.570;2022-10-19T09:30:25;13.10;99.90
72940;DHT22;61094;51.154;13.570;2022-10-19T09:32:58;13.10;99.90
72940;DHT22;61094;51.154;13.570;2022-10-19T09:35:27;13.20;99.90
72940;DHT22;61094;51.154;13.570;2022-10-19T09:38:14;13.30;99.90
72940;DHT22;61094;51.154;13.570;2022-10-19T09:40:46;13.40;99.90
72940;DHT22;61094;51.154;13.570;2022-10-19T09:43:13;13.50;99.90
72940;DHT22;61094;51.154;13.570;2022-10-19T09:45:49;13.60;99.70
72940;DHT22;61094;51.154;13.570;2022-10-19T09:48:22;13.70;99.90
72940;DHT22;61094;51.154;13.570;2022-10-19T09:50:54;13.70;99.90
72940;DHT22;61094;51.154;13.570;2022-10-19T09:53:23;13.80;99.90
72940;DHT22;61094;51.154;13.570;2022-10-19T09:55:57;13.90;99.90
72940;DHT22;61094;51.154;13.570;2022-10-19T09:58:25;14.00;99.00
72940;DHT22;61094;51.154;13.570;2022-10-19T10:00:53;14.10;99.90
72940;DHT22;61094;51.154;13.570;2022-10-19T10:03:23;14.20;99.90
72940;DHT22;61094;51.154;13.570;2022-10-19T10:05:51;14.30;99.90
72940;DHT22;61094;51.154;13.570;2022-10-19T10:08:20;14.30;99.90
72940;DHT22;61094;51.154;13.570;2022-10-19T10:11:03;14.40;99.90
72940;DHT22;61094;51.154;13.570;2022-10-19T10:13:35;14.30;98.90
72940;DHT22;61094;51.154;13.570;2022-10-19T10:16:05;14.30;99.70
72940;DHT22;61094;51.154;13.570;2022-10-19T10:18:36;14.20;99.90
72940;DHT22;61094;51.154;13.570;2022-10-19T10:21:11;14.20;98.40
72940;DHT22;61094;51.154;13.570;2022-10-19T10:23:39;14.20;95.60
72940;DHT22;61094;51.154;13.570;2022-10-19T10:26:15;14.20;97.70
72940;DHT22;61094;51.154;13.570;2022-10-19T10:28:45;14.10;93.40
72940;DHT22;61094;51.154;13.570;2022-10-19T10:31:12;14.10;99.90
72940;DHT22;61094;51.154;13.570;2022-10-19T10:33:40;14.00;97.70
72940;DHT22;61094;51.154;13.570;2022-10-19T10:36:08;13.90;99.90
72940;DHT22;61094;51.154;13.570;2022-10-19T10:38:38;13.80;92.40
72940;DHT22;61094;51.154;13.570;2022-10-19T10:41:11;13.70;89.40
72940;DHT22;61094;51.154;13.570;2022-10-19T10:43:50;13.60;95.70
72940;DHT22;61094;51.154;13.570;2022-10-19T10:46:21;13.70;99.80
72940;DHT22;61094;51.154;13.570;2022-10-19T10:48:53;13.70;93.00
72940;DHT22;61094;51.154;13.570;2022-10-19T10:51:33;13.90;99.90
72940;DHT22;61094;51.154;13.570;2022-10-19T10:54:16;14.00;98.50
72940;DHT22;61094;51.154;13.570;2022-10-19T10:56:53;14.10;96.40
72940;DHT22;61094;51.154;13.570;2022-10-19T10:59:26;14.00;91.20
72940;DHT22;61094;51.154;13.570;2022-10-19T11:01:58;13.90;93.10
72940;DHT22;61094;51.154;13.570;2022-10-19T11:04:30;14.00;95.90
72940;DHT22;61094;51.154;13.570;2022-10-19T11:07:00;13.90;95.00
72940;DHT22;61094;51.154;13.570;2022-10-19T11:09:35;13.90;96.30
72940;DHT22;61094;51.154;13.570;2022-10-19T11:12:04;13.90;97.50
72940;DHT22;61094;51.154;13.570;2022-10-19T11:14:43;13.90;90.20
72940;DHT22;61094;51.154;13.570;2022-10-19T11:17:16;13.80;91.40
72940;DHT22;61094;51.154;13.570;2022-10-19T11:19:43;13.80;96.40
72940;DHT22;61094;51.154;13.570;2022-10-19T11:22:18;13.80;93.80
72940;DHT22;61094;51.154;13.570;2022-10-19T11:24:55;13.70;94.60
72940;DHT22;61094;51.154;13.570;2022-10-19T11:27:29;13.70;92.00
72940;DHT22;61094;51.154;13.570;2022-10-19T11:30:08;13.70;95.30
72940;DHT22;61094;51.154;13.570;2022-10-19T11:32:45;13.70;85.60
72940;DHT22;61094;51.154;13.570;2022-10-19T11:35:29;13.70;96.60
72940;DHT22;61094;51.154;13.570;2022-10-19T11:38:11;13.70;93.10
72940;DHT22;61094;51.154;13.570;2022-10-19T11:40:44;13.80;97.80
72940;DHT22;61094;51.154;13.570;2022-10-19T11:43:20;13.80;97.60
72940;DHT22;61094;51.154;13.570;2022-10-19T11:45:57;13.80;92.80
72940;DHT22;61094;51.154;13.570;2022-10-19T11:48:38;13.80;94.70
72940;DHT22;61094;51.154;13.570;2022-10-19T11:51:11;13.80;96.00
72940;DHT22;61094;51.154;13.570;2022-10-19T11:53:49;13.70;92.10
72940;DHT22;61094;51.154;13.570;2022-10-19T11:56:25;13.70;95.30
72940;DHT22;61094;51.154;13.570;2022-10-19T11:58:57;13.60;95.80
72940;DHT22;61094;51.154;13.570;2022-10-19T12:01:40;13.60;94.60
72940;DHT22;61094;51.154;13.570;2022-10-19T12:07:48;13.50;91.30
72940;DHT22;61094;51.154;13.570;2022-10-19T12:10:24;13.50;97.10
72940;DHT22;61094;51.154;13.570;2022-10-19T12:12:56;13.40;87.20
72940;DHT22;61094;51.154;13.570;2022-10-19T12:15:29;13.40;94.00
72940;DHT22;61094;51.154;13.570;2022-10-19T12:18:03;13.50;93.60
72940;DHT22;61094;51.154;13.570;2022-10-19T12:20:34;13.50;90.20
72940;DHT22;61094;51.154;13.570;2022-10-19T12:23:13;13.50;95.80
72940;DHT22;61094;51.154;13.570;2022-10-19T12:25:43;13.50;97.20
72940;DHT22;61094;51.154;13.570;2022-10-19T12:28:19;13.50;99.40
72940;DHT22;61094;51.154;13.570;2022-10-19T12:30:48;13.60;99.50
72940;DHT22;61094;51.154;13.570;2022-10-19T12:33:21;13.60;99.90
72940;DHT22;61094;51.154;13.570;2022-10-19T12:35:57;13.60;99.90
72940;DHT22;61094;51.154;13.570;2022-10-19T12:38:31;13.60;99.90
72940;DHT22;61094;51.154;13.570;2022-10-19T12:41:02;13.60;99.90
72940;DHT22;61094;51.154;13.570;2022-10-19T12:43:37;13.50;99.60
72940;DHT22;61094;51.154;13.570;2022-10-19T12:46:14;13.60;99.90
72940;DHT22;61094;51.154;13.570;2022-10-19T12:48:45;13.50;99.90
72940;DHT22;61094;51.154;13.570;2022-10-19T12:51:14;13.50;99.70
72940;DHT22;61094;51.154;13.570;2022-10-19T12:53:44;13.50;99.90
72940;DHT22;61094;51.154;13.570;2022-10-19T12:56:18;13.50;99.90
72940;DHT22;61094;51.154;13.570;2022-10-19T12:58:50;13.50;99.90
72940;DHT22;61094;51.154;13.570;2022-10-19T13:01:22;13.40;99.90
72940;DHT22;61094;51.154;13.570;2022-10-19T13:04:05;13.40;99.90
72940;DHT22;61094;51.154;13.570;2022-10-19T13:06:34;13.40;99.80
72940;DHT22;61094;51.154;13.570;2022-10-19T13:09:04;13.40;98.30
72940;DHT22;61094;51.154;13.570;2022-10-19T13:11:32;13.40;99.90
72940;DHT22;61094;51.154;13.570;2022-10-19T13:14:04;13.40;99.90
72940;DHT22;61094;51.154;13.570;2022-10-19T13:16:56;13.30;99.90
72940;DHT22;61094;51.154;13.570;2022-10-19T13:19:25;13.40;91.50
72940;DHT22;61094;51.154;13.570;2022-10-19T13:22:24;13.40;99.00
72940;DHT22;61094;51.154;13.570;2022-10-19T13:25:18;13.30;93.30
72940;DHT22;61094;51.154;13.570;2022-10-19T13:27:46;13.30;96.40
72940;DHT22;61094;51.154;13.570;2022-10-19T13:33:43;13.40;99.90
72940;DHT22;61094;51.154;13.570;2022-10-19T13:36:12;13.30;94.40
72940;DHT22;61094;51.154;13.570;2022-10-19T13:38:42;13.30;99.60
72940;DHT22;61094;51.154;13.570;2022-10-19T13:41:13;13.30;99.90
72940;DHT22;61094;51.154;13.570;2022-10-19T13:44:00;13.30;99.90
72940;DHT22;61094;51.154;13.570;2022-10-19T13:46:46;13.30;99.40
72940;DHT22;61094;51.154;13.570;2022-10-19T13:49:41;13.30;99.90
72940;DHT22;61094;51.154;13.570;2022-10-19T13:52:41;13.30;99.20
72940;DHT22;61094;51.154;13.570;2022-10-19T13:55:38;13.30;99.90
72940;DHT22;61094;51.154;13.570;2022-10-19T13:58:40;13.40;99.90
72940;DHT22;61094;51.154;13.570;2022-10-19T14:01:25;13.40;99.90
72940;DHT22;61094;51.154;13.570;2022-10-19T14:04:18;13.30;97.90
72940;DHT22;61094;51.154;13.570;2022-10-19T14:06:50;13.40;98.70
72940;DHT22;61094;51.154;13.570;2022-10-19T14:09:32;13.40;99.90
72940;DHT22;61094;51.154;13.570;2022-10-19T14:12:08;13.40;98.00
72940;DHT22;61094;51.154;13.570;2022-10-19T14:14:41;13.40;96.00
72940;DHT22;61094;51.154;13.570;2022-10-19T14:17:17;13.40;94.80
72940;DHT22;61094;51.154;13.570;2022-10-19T14:19:45;13.40;98.90
72940;DHT22;61094;51.154;13.570;2022-10-19T14:22:18;13.40;96.80
72940;DHT22;61094;51.154;13.570;2022-10-19T14:24:47;13.40;98.10
72940;DHT22;61094;51.154;13.570;2022-10-19T14:27:18;13.40;99.90
72940;DHT22;61094;51.154;13.570;2022-10-19T14:29:48;13.30;99.90
72940;DHT22;61094;51.154;13.570;2022-10-19T14:32:18;13.30;99.90
72940;DHT22;61094;51.154;13.570;2022-10-19T14:34:47;13.30;99.90
72940;DHT22;61094;51.154;13.570;2022-10-19T14:37:17;13.30;99.90
72940;DHT22;61094;51.154;13.570;2022-10-19T14:40:01;13.20;99.90
72940;DHT22;61094;51.154;13.570;2022-10-19T14:42:38;13.30;99.80
72940;DHT22;61094;51.154;13.570;2022-10-19T14:45:13;13.20;99.90
72940;DHT22;61094;51.154;13.570;2022-10-19T14:47:58;13.20;98.80
72940;DHT22;61094;51.154;13.570;2022-10-19T14:50:34;13.20;99.40
72940;DHT22;61094;51.154;13.570;2022-10-19T14:53:20;13.20;99.90
72940;DHT22;61094;51.154;13.570;2022-10-19T14:55:52;13.20;99.90
72940;DHT22;61094;51.154;13.570;2022-10-19T14:58:21;13.20;99.90
72940;DHT22;61094;51.154;13.570;2022-10-19T15:00:49;13.10;99.90
72940;DHT22;61094;51.154;13.570;2022-10-19T15:03:21;13.10;98.70
72940;DHT22;61094;51.154;13.570;2022-10-19T15:05:53;13.10;99.90
72940;DHT22;61094;51.154;13.570;2022-10-19T15:08:30;13.00;99.90
72940;DHT22;61094;51.154;13.570;2022-10-19T15:10:59;13.00;99.90
72940;DHT22;61094;51.154;13.570;2022-10-19T15:13:29;12.90;97.90
72940;DHT22;61094;51.154;13.570;2022-10-19T15:15:58;12.90;99.90
72940;DHT22;61094;51.154;13.570;2022-10-19T15:18:32;12.90;99.90
72940;DHT22;61094;51.154;13.570;2022-10-19T15:21:03;12.90;99.90
72940;DHT22;61094;51.154;13.570;2022-10-19T15:23:37;12.90;99.90
72940;DHT22;61094;51.154;13.570;2022-10-19T15:26:16;12.80;99.70
72940;DHT22;61094;51.154;13.570;2022-10-19T15:28:48;12.80;99.90
72940;DHT22;61094;51.154;13.570;2022-10-19T15:31:17;12.80;99.90
72940;DHT22;61094;51.154;13.570;2022-10-19T15:33:48;12.80;99.90
72940;DHT22;61094;51.154;13.570;2022-10-19T15:36:16;12.70;99.50
72940;DHT22;61094;51.154;13.570;2022-10-19T15:38:45;12.70;98.60
72940;DHT22;61094;51.154;13.570;2022-10-19T15:41:19;12.70;99.40
72940;DHT22;61094;51.154;13.570;2022-10-19T15:43:48;12.70;99.90
72940;DHT22;61094;51.154;13.570;2022-10-19T15:46:27;12.60;99.90
72940;DHT22;61094;51.154;13.570;2022-10-19T15:48:57;12.60;99.90
72940;DHT22;61094;51.154;13.570;2022-10-19T15:51:45;12.50;98.90
72940;DHT22;61094;51.154;13.570;2022-10-19T15:54:13;12.50;95.60